KTPH/TPH METAR and TAF weather

Enter ICAO airport designator
Station Type Date Time Source
KTPH METAR 2024/04/15 08:56 UTC NOAA

KTPH 150856Z AUTO 32014G23KT 10SM BKN100 04/M01 A2995 RMK AO2 SLP124 T00391006 53002


Station Type Date Time Source
KTPH Decoded METAR 2024/04/15 08:56 UTC NOAA

TONOPAH AIRPORT, NV, United States (KTPH) 38-02N 117-05W 1652M
Apr 15, 2024 - 04:56 AM EDT / 2024.04.15 0856 UTC
Wind: from the NW (320 degrees) at 16 MPH (14 KT) gusting to 26 MPH (23 KT):0
Visibility: 10 mile(s):0
Sky conditions: mostly cloudy
Temperature: 39.0 F (3.9 C)
Dew Point: 30.9 F (-0.6 C)
Relative Humidity: 72%
Pressure (altimeter): 29.95 in. Hg (1014 hPa)
Pressure tendency: 0.01 inches (0.2 hPa) higher than three hours ago
ob: KTPH 150856Z AUTO 32014G23KT 10SM BKN100 04/M01 A2995 RMK AO2 SLP124 T00391006 53002
cycle: 9

Station Type Date Time Source
KTPH TAF 2024/04/15 07:18 UTC NOAA